Time;durP1;ratioP1;P1;durP2;ratioP2;P2;SDS_P1;SDS_P2;PMS_P1;PMS_P2;Temp;Humidity;BMP_temperature;BMP_pressure;BME280_temperature;BME280_humidity;BME280_pressure;Samples;Min_cycle;Max_cycle;Signal;HPM_P1;HPM_P2
2022/11/21 00:03:25;;;;;;;113.95;38.00;;;;;;;-5.27;89.35;98439.16;8429679;28;20047;-75
2022/11/21 00:07:26;;;;;;;104.53;37.15;;;;;;;-5.28;89.64;98437.53;8430730;28;20091;-76
2022/11/21 00:11:28;;;;;;;104.63;35.63;;;;;;;-5.31;89.52;98449.31;8377546;28;20040;-75
2022/11/21 00:15:29;;;;;;;114.07;38.70;;;;;;;-5.37;89.53;98459.94;8429944;28;20051;-75
2022/11/21 00:19:30;;;;;;;109.10;40.10;;;;;;;-5.44;89.52;98448.69;8430300;28;20122;-76
2022/11/21 00:23:31;;;;;;;124.15;39.53;;;;;;;-5.43;89.80;98445.03;8429540;28;20052;-76
2022/11/21 00:27:32;;;;;;;123.03;40.05;;;;;;;-5.42;89.71;98441.38;8428731;28;20494;-76
2022/11/21 00:31:33;;;;;;;119.28;37.35;;;;;;;-5.37;89.75;98444.16;8427190;28;20094;-75
2022/11/21 00:35:34;;;;;;;118.63;39.25;;;;;;;-5.34;90.03;98448.97;8426837;28;20047;-76
2022/11/21 00:39:34;;;;;;;111.32;40.22;;;;;;;-5.30;89.76;98450.13;8429464;28;20048;-76
2022/11/21 00:43:36;;;;;;;122.15;39.45;;;;;;;-5.26;90.00;98446.03;8428962;28;20052;-76
2022/11/21 00:47:36;;;;;;;134.20;44.97;;;;;;;-5.24;89.87;98444.00;8427361;28;20700;-76
2022/11/21 00:51:37;;;;;;;129.43;43.67;;;;;;;-5.22;89.74;98431.38;8375692;28;20055;-76
2022/11/21 00:55:38;;;;;;;156.13;47.35;;;;;;;-5.20;89.63;98429.34;8377378;28;20058;-76
2022/11/21 00:59:39;;;;;;;154.23;46.25;;;;;;;-5.17;89.84;98434.16;8357613;28;20071;-76
2022/11/21 01:03:41;;;;;;;145.15;46.65;;;;;;;-5.14;90.16;98438.97;8357081;28;20053;-75
2022/11/21 01:07:42;;;;;;;142.23;48.25;;;;;;;-5.12;90.18;98421.13;8355724;28;20162;-75
2022/11/21 01:11:43;;;;;;;143.20;46.92;;;;;;;-5.11;90.26;98425.34;8355026;28;20044;-75
2022/11/21 01:15:44;;;;;;;150.00;47.47;;;;;;;-5.12;90.78;98421.13;8324379;28;20531;-76
2022/11/21 01:19:44;;;;;;;141.63;46.28;;;;;;;-5.10;90.52;98413.81;8357559;28;20057;-75
2022/11/21 01:23:46;;;;;;;130.65;46.28;;;;;;;-5.02;90.53;98402.94;8304136;28;20057;-75
2022/11/21 01:27:47;;;;;;;141.35;46.78;;;;;;;-4.83;90.83;98383.41;8357524;28;20538;-75
2022/11/21 01:31:49;;;;;;;142.52;45.58;;;;;;;-4.60;91.71;98381.84;8427036;28;20518;-75
2022/11/21 01:35:49;;;;;;;146.27;45.85;;;;;;;-4.45;92.70;98363.72;8427885;28;20528;-75
2022/11/21 01:39:51;;;;;;;145.73;46.75;;;;;;;-4.30;93.80;98366.69;8427671;28;20075;-75
2022/11/21 01:43:52;;;;;;;148.55;46.42;;;;;;;-4.16;94.62;98357.50;8427385;28;20080;-75
2022/11/21 01:47:53;;;;;;;132.13;44.00;;;;;;;-4.04;95.03;98360.91;8374878;28;20105;-75
2022/11/21 01:52:32;;;;;;;127.47;43.33;;;;;;;-3.92;95.61;98369.59;8408931;28;20411;-76
2022/11/21 01:56:41;;;;;;;136.32;44.42;;;;;;;-3.83;96.50;98362.94;8258632;28;20054;-75
2022/11/21 02:00:45;;;;;;;131.80;44.38;;;;;;;-3.78;96.90;98358.78;8263123;28;20178;-76
2022/11/21 02:04:47;;;;;;;129.80;42.20;;;;;;;-3.73;96.65;98353.59;8237450;28;20050;-76
2022/11/21 02:08:48;;;;;;;119.93;42.40;;;;;;;-3.69;97.90;98362.63;8251777;28;20046;-76
2022/11/21 02:12:51;;;;;;;120.68;39.88;;;;;;;-3.64;97.64;98360.09;8253806;28;20046;-75
2022/11/21 02:16:54;;;;;;;124.60;39.95;;;;;;;-3.60;98.00;98361.25;8198490;28;20421;-75
2022/11/21 02:21:24;;;;;;;124.80;42.17;;;;;;;-3.56;97.82;98341.25;8239698;28;20050;-75
2022/11/21 02:25:31;;;;;;;114.75;39.00;;;;;;;-3.48;97.89;98349.59;8119646;28;20079;-75
2022/11/21 02:29:32;;;;;;;127.00;38.13;;;;;;;-3.38;97.73;98327.84;8223890;28;20055;-75
2022/11/21 02:33:34;;;;;;;112.97;39.75;;;;;;;-3.31;97.35;98328.50;8222907;28;20042;-76
2022/11/21 02:37:36;;;;;;;118.88;38.53;;;;;;;-3.25;97.39;98321.47;8219770;28;20556;-75
2022/11/21 02:41:41;;;;;;;103.80;35.60;;;;;;;-3.20;97.41;98303.88;8219745;28;20055;-76
2022/11/21 02:45:43;;;;;;;91.88;34.25;;;;;;;-3.14;97.23;98302.91;8189119;28;20051;-75
2022/11/21 02:49:53;;;;;;;101.25;34.70;;;;;;;-3.08;97.57;98280.84;8218917;28;20066;-75
2022/11/21 02:53:53;;;;;;;108.57;35.03;;;;;;;-3.00;97.64;98277.78;8221755;28;20042;-75
2022/11/21 02:57:54;;;;;;;105.97;36.33;;;;;;;-2.96;97.56;98269.38;8215754;28;20051;-75
2022/11/21 03:01:58;;;;;;;96.43;36.63;;;;;;;-2.94;97.38;98269.91;8341218;28;20049;-76
2022/11/21 03:05:59;;;;;;;99.13;35.88;;;;;;;-2.91;97.48;98266.81;8387633;28;20651;-75
2022/11/21 03:10:00;;;;;;;107.47;36.45;;;;;;;-2.88;97.81;98250.47;8389039;28;20056;-75
2022/11/21 03:14:01;;;;;;;107.03;37.92;;;;;;;-2.84;97.65;98248.94;8386285;28;20495;-75
2022/11/21 03:18:03;;;;;;;105.80;36.85;;;;;;;-2.81;97.31;98251.09;8384904;28;20052;-75
2022/11/21 03:22:04;;;;;;;107.97;39.45;;;;;;;-2.77;97.21;98244.28;8387827;28;20044;-75
2022/11/21 03:26:05;;;;;;;118.28;41.63;;;;;;;-2.82;97.12;98242.38;8387118;28;20144;-75
2022/11/21 03:30:07;;;;;;;115.53;40.70;;;;;;;-2.86;97.35;98240.47;8384734;28;20453;-76
2022/11/21 03:34:08;;;;;;;106.15;38.97;;;;;;;-2.85;97.64;98231.47;8357301;28;20143;-75
2022/11/21 03:38:09;;;;;;;101.88;36.10;;;;;;;-2.81;97.33;98222.84;8406837;28;20056;-75
2022/11/21 03:42:10;;;;;;;109.93;38.70;;;;;;;-2.74;97.17;98217.34;8425486;28;20410;-75
2022/11/21 03:46:11;;;;;;;99.53;35.67;;;;;;;-2.70;97.12;98207.91;8426956;28;20054;-75
2022/11/21 03:50:14;;;;;;;99.50;36.70;;;;;;;-2.68;96.90;98211.09;8425591;28;20056;-75
2022/11/21 03:54:15;;;;;;;97.30;36.88;;;;;;;-2.64;96.75;98201.63;8427226;28;20052;-75
2022/11/21 03:58:15;;;;;;;108.28;35.33;;;;;;;-2.68;97.48;98205.81;8423619;28;20422;-75
2022/11/21 04:02:17;;;;;;;105.53;37.60;;;;;;;-2.66;97.75;98198.44;8385398;28;20122;-75
2022/11/21 04:06:19;;;;;;;100.75;36.78;;;;;;;-2.64;97.64;98185.75;8423659;28;20058;-75
2022/11/21 04:10:20;;;;;;;99.68;36.78;;;;;;;-2.62;98.32;98173.13;8423884;28;20051;-75
2022/11/21 04:14:21;;;;;;;95.72;35.80;;;;;;;-2.57;98.24;98165.25;8423903;28;20131;-75
2022/11/21 04:18:22;;;;;;;103.38;35.50;;;;;;;-2.57;98.17;98170.53;8370952;28;20369;-75
2022/11/21 04:22:23;;;;;;;101.85;35.47;;;;;;;-2.56;98.33;98153.63;8423377;28;20697;-75
2022/11/21 04:26:24;;;;;;;96.55;34.40;;;;;;;-2.58;98.59;98147.78;8405703;28;20052;-75
2022/11/21 04:30:26;;;;;;;95.07;35.17;;;;;;;-2.54;98.53;98150.75;8426283;28;20494;-75
2022/11/21 04:34:27;;;;;;;96.18;35.15;;;;;;;-2.51;98.60;98137.81;8422690;28;20406;-74
2022/11/21 04:38:28;;;;;;;102.57;34.97;;;;;;;-2.52;98.89;98130.94;8389938;28;20135;-75
2022/11/21 04:42:29;;;;;;;97.32;33.70;;;;;;;-2.48;98.98;98121.47;8422236;28;20059;-75
2022/11/21 04:46:30;;;;;;;95.07;33.95;;;;;;;-2.43;99.22;98124.16;8406261;28;20394;-75
2022/11/21 04:50:31;;;;;;;95.45;35.28;;;;;;;-2.46;99.11;98118.56;8423845;28;20059;-75
2022/11/21 04:54:32;;;;;;;90.90;33.92;;;;;;;-2.47;99.29;98117.78;8416638;28;20048;-75
2022/11/21 04:58:33;;;;;;;89.82;32.22;;;;;;;-2.40;99.02;98107.00;8423954;28;20048;-75
2022/11/21 05:02:34;;;;;;;99.95;35.65;;;;;;;-2.37;99.46;98102.00;8423910;28;20486;-75
2022/11/21 05:06:35;;;;;;;104.75;36.83;;;;;;;-2.30;99.81;98102.63;8425933;28;20109;-75
2022/11/21 05:13:19;;;;;;;96.63;35.67;;;;;;;-2.28;99.82;98099.72;8426629;28;20040;-75
2022/11/21 05:14:57;;;;;;;99.68;35.80;;;;;;;-2.25;99.97;98084.16;8423290;28;20048;-75
2022/11/21 05:18:57;;;;;;;96.10;32.83;;;;;;;-2.18;99.71;98071.53;8419597;28;20051;-75
2022/11/21 05:22:58;;;;;;;83.82;31.58;;;;;;;-2.08;99.26;98070.00;8388876;28;20049;-75
2022/11/21 05:26:59;;;;;;;102.32;34.20;;;;;;;-2.04;99.28;98057.88;8414290;28;20448;-74
2022/11/21 05:31:00;;;;;;;102.28;35.05;;;;;;;-2.01;99.10;98041.50;8371437;28;20048;-75
2022/11/21 05:35:01;;;;;;;96.80;33.90;;;;;;;-2.01;98.93;98046.78;8366389;28;20736;-75
2022/11/21 05:39:03;;;;;;;103.70;33.80;;;;;;;-1.98;98.81;98046.28;8375315;28;1258201;-75
2022/11/21 05:47:23;;;;;;;100.45;39.65;;;;;;;-1.94;98.99;98036.78;8418227;28;20408;-76
2022/11/21 05:51:24;;;;;;;117.38;39.25;;;;;;;-1.89;98.89;98040.25;8413140;28;20032;-75
2022/11/21 05:55:25;;;;;;;100.25;37.08;;;;;;;-1.87;98.72;98037.38;8409547;28;20051;-76
2022/11/21 05:59:25;;;;;;;100.25;36.63;;;;;;;-1.90;99.12;98027.28;8417626;28;20481;-75
2022/11/21 06:03:30;;;;;;;101.63;34.78;;;;;;;-1.86;98.82;98023.88;8367424;28;20044;-75
2022/11/21 06:07:32;;;;;;;106.45;38.72;;;;;;;-1.84;98.78;98020.97;8408063;28;20044;-76
2022/11/21 06:11:33;;;;;;;98.03;33.85;;;;;;;-1.82;98.87;98013.56;8411676;28;20048;-75
2022/11/21 06:15:34;;;;;;;103.22;35.88;;;;;;;-1.79;98.77;98013.84;8417951;28;20060;-75
2022/11/21 06:19:35;;;;;;;102.80;36.30;;;;;;;-1.74;98.70;98021.03;8390702;28;20048;-75
2022/11/21 06:23:35;;;;;;;97.28;35.63;;;;;;;-1.75;98.50;98014.16;8412684;28;20121;-76
2022/11/21 06:27:37;;;;;;;104.38;33.47;;;;;;;-1.70;98.24;98011.53;8416663;28;20052;-75
2022/11/21 06:31:39;;;;;;;105.30;38.05;;;;;;;-1.70;98.54;98000.94;8408980;28;20041;-76
2022/11/21 06:35:40;;;;;;;112.93;38.65;;;;;;;-1.70;98.50;98006.25;8341253;28;20140;-76
2022/11/21 06:39:41;;;;;;;97.60;34.90;;;;;;;-1.70;98.52;98000.94;8408277;28;20051;-76
2022/11/21 06:43:42;;;;;;;118.63;38.22;;;;;;;-1.75;98.67;97998.28;8415099;28;20614;-75
2022/11/21 06:47:43;;;;;;;95.35;35.35;;;;;;;-1.76;98.72;98001.97;8412137;28;20047;-76
2022/11/21 06:51:44;;;;;;;110.32;39.00;;;;;;;-1.75;98.46;97995.63;8400714;28;20068;-76
2022/11/21 06:55:45;;;;;;;101.45;36.50;;;;;;;-1.77;98.75;98000.38;8416884;28;20055;-76
2022/11/21 06:59:46;;;;;;;107.45;36.60;;;;;;;-1.73;99.18;98004.09;8417173;28;20048;-76
2022/11/21 07:03:47;;;;;;;106.57;36.50;;;;;;;-1.73;98.70;97993.50;8412081;28;20482;-76
2022/11/21 07:07:48;;;;;;;120.30;41.08;;;;;;;-1.69;98.79;98002.53;8422068;28;20055;-75
2022/11/21 07:11:49;;;;;;;104.90;34.80;;;;;;;-1.66;99.01;98007.31;8419078;28;20044;-75
2022/11/21 07:15:52;;;;;;;108.38;36.10;;;;;;;-1.59;99.01;98002.59;8419054;28;20046;-75
2022/11/21 07:19:53;;;;;;;109.30;38.30;;;;;;;-1.52;98.98;98007.66;8401451;28;20044;-76
2022/11/21 07:23:54;;;;;;;100.60;33.80;;;;;;;-1.50;98.67;97995.75;8405138;28;20455;-76
2022/11/21 07:27:59;;;;;;;96.07;33.92;;;;;;;-1.45;98.84;98009.03;8402036;28;20044;-76
2022/11/21 07:32:00;;;;;;;97.28;34.33;;;;;;;-1.39;98.77;98012.50;8402433;28;20045;-75
2022/11/21 07:36:01;;;;;;;87.72;33.67;;;;;;;-1.35;98.71;98003.78;8402847;28;20052;-76
2022/11/21 07:40:02;;;;;;;104.95;36.22;;;;;;;-1.29;98.80;98008.03;8400457;28;20052;-76
2022/11/21 07:44:03;;;;;;;93.18;34.45;;;;;;;-1.18;98.74;98002.78;8419685;28;20039;-76
2022/11/21 07:48:05;;;;;;;92.68;34.17;;;;;;;-1.13;98.86;98005.44;8430958;28;20401;-76
2022/11/21 07:52:07;;;;;;;90.88;34.35;;;;;;;-1.08;98.92;97997.50;8431248;28;20051;-76
2022/11/21 07:56:10;;;;;;;96.70;35.90;;;;;;;-0.96;98.64;98006.03;8430783;28;20540;-76
2022/11/21 08:00:12;;;;;;;94.22;33.67;;;;;;;-0.90;98.46;97986.44;8430750;28;20185;-76
2022/11/21 08:04:13;;;;;;;99.85;36.45;;;;;;;-0.82;98.91;97991.22;8377913;28;20502;-76
2022/11/21 08:08:14;;;;;;;96.32;36.85;;;;;;;-0.75;98.71;97989.13;8429967;28;20434;-75
2022/11/21 08:12:15;;;;;;;91.00;35.55;;;;;;;-0.67;98.50;97988.59;8430296;28;20044;-76
2022/11/21 08:16:16;;;;;;;100.13;35.53;;;;;;;-0.59;98.47;97990.75;8430281;28;20390;-76
2022/11/21 08:20:17;;;;;;;103.55;36.85;;;;;;;-0.51;98.38;97992.84;8394737;28;20052;-76
2022/11/21 08:24:18;;;;;;;89.93;34.53;;;;;;;-0.46;98.78;97990.19;8430094;28;20040;-76
2022/11/21 08:28:19;;;;;;;95.38;39.53;;;;;;;-0.40;98.92;98003.47;8430011;28;20055;-75
2022/11/21 08:32:20;;;;;;;97.40;35.95;;;;;;;-0.35;98.45;98000.81;8429495;28;20052;-75
2022/11/21 08:36:21;;;;;;;84.05;33.83;;;;;;;-0.34;98.61;97997.09;8429999;28;20409;-76
2022/11/21 08:40:23;;;;;;;95.10;35.95;;;;;;;-0.31;98.74;98001.88;8429722;28;20122;-75
2022/11/21 08:44:24;;;;;;;95.82;34.63;;;;;;;-0.28;98.92;98006.66;8429702;28;20473;-76
2022/11/21 08:48:25;;;;;;;90.50;34.53;;;;;;;-0.27;98.86;98002.97;8393294;28;20073;-76
2022/11/21 08:52:26;;;;;;;102.70;36.45;;;;;;;-0.24;99.27;98013.03;8429304;28;20063;-76
2022/11/21 08:56:27;;;;;;;105.88;38.42;;;;;;;-0.25;99.40;98006.13;8427290;28;20048;-76
2022/11/21 09:00:28;;;;;;;102.68;39.65;;;;;;;-0.21;99.62;98007.22;8417102;28;20120;-75
2022/11/21 09:04:29;;;;;;;100.45;36.72;;;;;;;-0.17;99.73;98013.56;8428841;28;20058;-76
2022/11/21 09:08:30;;;;;;;98.22;35.58;;;;;;;-0.13;99.49;98009.31;8428607;28;20048;-76
2022/11/21 09:12:31;;;;;;;90.90;35.08;;;;;;;-0.11;99.98;98012.50;8393005;28;20040;-76
2022/11/21 09:20:52;;;;;;;128.50;46.03;;;;;;;0.03;99.98;98012.75;8428283;28;20055;-76
2022/11/21 09:24:53;;;;;;;116.95;39.80;;;;;;;0.06;100.00;98013.00;8427437;28;20044;-76
2022/11/21 09:28:56;;;;;;;109.97;37.67;;;;;;;0.13;100.00;98013.53;8423102;28;20067;-76
2022/11/21 09:33:01;;;;;;;295.02;96.47;;;;;;;0.21;100.00;98010.31;8428452;28;20063;-76
2022/11/21 09:37:02;;;;;;;135.07;46.15;;;;;;;0.28;100.00;98024.13;8409951;28;20093;-76
2022/11/21 09:45:49;;;;;;;92.32;35.90;;;;;;;0.48;100.00;98003.94;8418861;28;20051;-75
2022/11/21 09:49:59;;;;;;;85.13;35.33;;;;;;;0.56;99.67;98001.50;8426784;28;20071;-76
2022/11/21 09:54:25;;;;;;;131.82;45.65;;;;;;;0.63;99.54;98006.53;8415762;28;20047;-75
2022/11/21 09:58:48;;;;;;;207.55;64.70;;;;;;;0.72;99.51;98010.22;8242919;28;20042;-76
2022/11/21 10:07:58;;;;;;;119.50;41.47;;;;;;;0.87;100.00;98012.81;8258186;28;20050;-75
2022/11/21 10:16:44;;;;;;;145.68;45.92;;;;;;;1.07;100.00;98012.72;8244604;28;20054;-75
2022/11/21 10:21:04;;;;;;;130.77;41.92;;;;;;;1.21;100.00;98008.41;8261025;28;20054;-76
2022/11/21 10:25:13;;;;;;;125.18;43.45;;;;;;;1.27;100.00;98001.16;8258673;28;20054;-76
2022/11/21 10:29:23;;;;;;;101.60;38.70;;;;;;;1.37;100.00;98000.31;8261907;28;20071;-75
2022/11/21 10:33:32;;;;;;;88.10;34.53;;;;;;;1.44;100.00;98000.78;8242323;28;20387;-75
2022/11/21 10:37:37;;;;;;;71.40;30.73;;;;;;;1.48;100.00;98001.84;8431617;28;20102;-75
2022/11/21 10:41:49;;;;;;;75.60;30.08;;;;;;;1.51;100.00;97995.97;8416914;28;20486;-75
2022/11/21 10:45:50;;;;;;;71.65;28.40;;;;;;;1.51;100.00;97990.66;8413957;28;20739;-75
2022/11/21 10:50:13;;;;;;;63.50;26.25;;;;;;;1.54;100.00;97995.41;8426017;28;20048;-75
2022/11/21 10:54:32;;;;;;;64.72;26.15;;;;;;;1.68;100.00;98001.72;8267788;28;20114;-75
2022/11/21 10:58:43;;;;;;;74.32;28.83;;;;;;;1.73;100.00;98009.66;8267997;28;20109;-76
2022/11/21 11:03:03;;;;;;;68.57;28.60;;;;;;;1.73;100.00;98009.66;8251568;28;20096;-75
2022/11/21 11:07:27;;;;;;;74.93;29.45;;;;;;;1.72;100.00;98010.72;8267863;28;20065;-75
2022/11/21 11:11:28;;;;;;;83.43;32.80;;;;;;;1.77;100.00;98004.56;8265572;28;20128;-75
2022/11/21 11:15:29;;;;;;;78.90;31.42;;;;;;;1.81;100.00;98006.38;8267707;28;20058;-75
2022/11/21 11:19:30;;;;;;;84.47;32.25;;;;;;;1.88;100.00;98009.53;8269097;28;20066;-76
2022/11/21 11:23:31;;;;;;;135.43;42.08;;;;;;;1.90;100.00;98010.06;8265879;28;20065;-76
2022/11/21 11:27:32;;;;;;;131.13;44.47;;;;;;;1.92;100.00;98007.91;8239773;28;20121;-76
2022/11/21 11:31:41;;;;;;;162.70;52.72;;;;;;;1.91;100.00;98019.59;8376246;28;20071;-74
2022/11/21 11:35:43;;;;;;;171.73;64.43;;;;;;;1.90;100.00;98026.03;8430289;28;20421;-75
2022/11/21 11:39:59;;;;;;;131.00;51.45;;;;;;;1.91;100.00;98032.91;8401630;28;20132;-75
2022/11/21 11:48:28;;;;;;;130.63;49.45;;;;;;;1.89;100.00;98040.41;8391699;28;20049;-75
2022/11/21 11:52:37;;;;;;;105.38;39.95;;;;;;;1.89;100.00;98035.09;8388606;28;20041;-74
2022/11/21 11:56:37;;;;;;;189.88;75.82;;;;;;;1.94;100.00;98032.38;8400938;28;21151;-75
2022/11/21 12:00:49;;;;;;;154.63;57.25;;;;;;;1.96;100.00;98040.88;8399951;28;20413;-75
2022/11/21 12:04:58;;;;;;;149.02;55.38;;;;;;;1.93;100.00;98038.78;8399679;28;20487;-75
2022/11/21 12:09:04;;;;;;;127.72;52.28;;;;;;;1.95;100.00;98039.31;8400468;28;20106;-75
2022/11/21 12:13:10;;;;;;;91.35;37.63;;;;;;;1.96;100.00;98040.88;8399234;28;20071;-75
2022/11/21 12:17:13;;;;;;;68.57;26.95;;;;;;;1.95;100.00;98049.94;8399497;28;20064;-74
2022/11/21 12:21:15;;;;;;;61.38;25.02;;;;;;;2.01;100.00;98048.81;8353664;28;20086;-76
2022/11/21 12:25:19;;;;;;;55.47;20.95;;;;;;;2.14;100.00;98063.38;8400588;28;20040;-74
2022/11/21 12:29:23;;;;;;;45.05;19.13;;;;;;;2.25;100.00;98064.06;8326035;28;20077;-74
2022/11/21 12:33:24;;;;;;;43.42;17.80;;;;;;;2.31;100.00;98070.97;8326377;28;20133;-74
2022/11/21 12:37:44;;;;;;;39.95;17.25;;;;;;;2.32;100.00;98080.53;8325786;28;20045;-75
2022/11/21 12:46:19;;;;;;;36.20;15.40;;;;;;;2.34;100.00;98084.50;8329911;28;20119;-74
2022/11/21 12:54:52;;;;;;;36.50;16.38;;;;;;;2.30;100.00;98088.00;8312609;28;20045;-74
2022/11/21 12:58:54;;;;;;;51.13;22.55;;;;;;;2.28;100.00;98085.63;8332981;28;20056;-75
2022/11/21 13:03:36;;;;;;;50.67;23.42;;;;;;;2.24;100.00;98089.91;8356521;28;20045;-74
2022/11/21 13:07:38;;;;;;;34.78;16.10;;;;;;;2.21;100.00;98084.38;8359935;28;20414;-76
2022/11/21 13:12:00;;;;;;;42.03;19.55;;;;;;;2.22;100.00;98091.28;8366453;28;20049;-76
2022/11/21 13:16:09;;;;;;;42.92;20.13;;;;;;;2.22;100.00;98085.97;8366202;28;20057;-75
2022/11/21 13:20:29;;;;;;;40.10;18.40;;;;;;;2.23;100.00;98092.84;8363611;28;20037;-75
2022/11/21 13:24:46;;;;;;;46.13;19.92;;;;;;;2.24;100.00;98094.44;8364686;28;20662;-75
2022/11/21 13:28:47;;;;;;;43.38;19.65;;;;;;;2.27;100.00;98099.25;8360931;28;20506;-75
2022/11/21 13:32:53;;;;;;;48.22;22.13;;;;;;;2.24;100.00;98110.44;8364471;28;20478;-75
2022/11/21 13:36:54;;;;;;;44.83;20.77;;;;;;;2.21;100.00;98111.00;8365596;28;20470;-74
2022/11/21 13:45:45;;;;;;;56.05;26.58;;;;;;;2.12;100.00;98124.91;8432621;28;20044;-75
2022/11/21 13:50:03;;;;;;;45.38;20.98;;;;;;;2.10;100.00;98126.25;8426091;28;20048;-75
2022/11/21 13:54:31;;;;;;;46.47;21.90;;;;;;;2.10;100.00;98143.03;8381358;28;20044;-75
2022/11/21 13:59:11;;;;;;;43.50;21.17;;;;;;;2.02;100.00;98135.63;8431785;28;20059;-75
2022/11/21 14:03:35;;;;;;;48.42;22.60;;;;;;;1.91;100.00;98150.06;8263433;28;20129;-75
2022/11/21 14:07:37;;;;;;;58.85;25.70;;;;;;;1.83;100.00;98148.00;8231571;28;20416;-75
2022/11/21 14:11:56;;;;;;;55.72;24.15;;;;;;;1.79;100.00;98162.94;8252860;28;20125;-75
2022/11/21 14:16:40;;;;;;;60.03;26.08;;;;;;;1.71;100.00;98160.84;8263749;28;20125;-76
2022/11/21 14:20:56;;;;;;;54.13;23.00;;;;;;;1.69;100.00;98163.75;8243927;28;20334;-75
2022/11/21 14:24:57;;;;;;;52.13;22.65;;;;;;;1.66;100.00;98164.31;8256933;28;20571;-74
2022/11/21 14:29:26;;;;;;;52.15;23.00;;;;;;;1.63;100.00;98164.09;8241651;28;20482;-74
2022/11/21 14:33:31;;;;;;;;;;;;;;;1.59;100.00;98178.97;8258039;28;20197;-75
2022/11/21 14:37:32;;;;;;;80.03;32.67;;;;;;;1.39;100.00;98195.03;8268449;28;20117;-76
2022/11/21 14:41:35;;;;;;;83.07;32.88;;;;;;;1.23;100.00;98187.09;8419135;28;20490;-75
2022/11/21 14:45:35;;;;;;;93.65;36.85;;;;;;;1.20;100.00;98200.94;8426123;28;20051;-75
2022/11/21 14:49:36;;;;;;;91.65;35.90;;;;;;;1.12;100.00;98201.47;8426146;28;20054;-75
2022/11/21 14:53:41;;;;;;;90.03;34.22;;;;;;;1.06;100.00;98205.22;8421437;28;20509;-75
2022/11/21 14:57:43;;;;;;;107.70;47.60;;;;;;;1.05;100.00;98206.31;8408688;28;20044;-74
2022/11/21 15:01:54;;;;;;;108.85;46.03;;;;;;;0.96;100.00;98213.19;8390808;28;20494;-75
2022/11/21 15:06:01;;;;;;;101.43;37.78;;;;;;;0.92;100.00;98211.34;8355698;28;20496;-75
2022/11/21 15:10:02;;;;;;;89.07;34.70;;;;;;;0.87;100.00;98204.19;8355294;28;20047;-75
2022/11/21 15:14:20;;;;;;;96.45;37.50;;;;;;;0.85;100.00;98203.66;8339174;28;20053;-74
2022/11/21 15:18:25;;;;;;;110.85;41.53;;;;;;;0.77;100.00;98198.88;8355599;28;20470;-75
2022/11/21 15:22:37;;;;;;;125.93;42.28;;;;;;;0.69;100.00;98207.38;8354863;28;20538;-75
2022/11/21 15:26:39;;;;;;;114.85;46.47;;;;;;;0.64;100.00;98194.09;8322781;28;20128;-75
2022/11/21 15:30:41;;;;;;;104.50;37.78;;;;;;;0.59;100.00;98199.41;8361318;28;20453;-75
2022/11/21 15:34:42;;;;;;;92.88;35.25;;;;;;;0.53;100.00;98213.78;8352786;28;20383;-75
2022/11/21 15:38:48;;;;;;;94.85;35.22;;;;;;;0.48;100.00;98211.13;8421191;28;20460;-75
2022/11/21 15:42:49;;;;;;;100.53;38.08;;;;;;;0.38;100.00;98218.00;8408584;28;20094;-75
2022/11/21 15:46:51;;;;;;;109.82;38.42;;;;;;;0.35;100.00;98218.53;8431302;28;20048;-75
2022/11/21 15:50:52;;;;;;;82.68;31.88;;;;;;;0.29;100.00;98224.09;8428054;28;20048;-75
2022/11/21 15:54:53;;;;;;;90.60;31.25;;;;;;;0.23;100.00;98228.59;8430595;28;20414;-75
2022/11/21 15:58:54;;;;;;;76.72;30.65;;;;;;;0.25;99.79;98234.47;8426507;28;20058;-75
2022/11/21 16:02:55;;;;;;;68.97;26.38;;;;;;;0.22;99.93;98229.66;8430505;28;20040;-75
2022/11/21 16:06:56;;;;;;;64.90;25.58;;;;;;;0.24;99.57;98238.16;8430692;28;20044;-75
2022/11/21 16:10:57;;;;;;;60.55;24.95;;;;;;;0.19;98.00;98226.75;8431594;28;20044;-75
2022/11/21 16:14:58;;;;;;;51.05;20.15;;;;;;;0.14;97.73;98232.84;8429850;28;20425;-75
2022/11/21 16:18:59;;;;;;;55.15;23.45;;;;;;;0.11;97.92;98236.00;8428623;28;20501;-75
2022/11/21 16:23:00;;;;;;;59.67;23.10;;;;;;;0.18;97.57;98217.16;8393816;28;20040;-75
2022/11/21 16:27:01;;;;;;;76.07;28.38;;;;;;;0.13;97.95;98225.94;8430038;28;20075;-75
2022/11/21 16:31:03;;;;;;;81.15;31.73;;;;;;;0.01;98.07;98238.63;8429991;28;20044;-75
2022/11/21 16:35:05;;;;;;;85.20;30.15;;;;;;;0.00;97.60;98237.06;8429584;28;20051;-75
2022/11/21 16:39:06;;;;;;;82.32;30.15;;;;;;;0.03;97.77;98247.16;8428922;28;20051;-75
2022/11/21 16:43:09;;;;;;;79.45;29.40;;;;;;;0.09;97.57;98246.09;8428959;28;20048;-75
2022/11/21 16:47:12;;;;;;;75.38;28.98;;;;;;;0.06;97.59;98251.91;8428578;28;20093;-75
2022/11/21 16:51:18;;;;;;;77.75;28.95;;;;;;;0.03;97.98;98241.84;8428684;28;20562;-75
2022/11/21 16:55:19;;;;;;;76.10;26.77;;;;;;;-0.06;97.81;98240.75;8428527;28;20051;-75
2022/11/21 16:59:21;;;;;;;77.80;28.58;;;;;;;-0.08;97.70;98250.81;8376639;28;20040;-74
2022/11/21 17:03:22;;;;;;;76.60;25.65;;;;;;;-0.06;97.47;98232.78;8378840;28;20480;-74
2022/11/21 17:07:23;;;;;;;73.18;27.55;;;;;;;-0.04;97.30;98241.28;8425868;28;20059;-75
2022/11/21 17:11:28;;;;;;;68.90;25.40;;;;;;;-0.16;97.12;98243.38;8376003;28;20541;-75
2022/11/21 17:15:31;;;;;;;73.20;25.15;;;;;;;-0.15;97.78;98255.56;8351076;28;20044;-75
2022/11/21 17:19:33;;;;;;;66.82;22.58;;;;;;;-0.16;97.07;98259.31;8372281;28;20040;-75
2022/11/21 17:23:37;;;;;;;69.05;24.75;;;;;;;-0.15;97.22;98239.63;8428341;28;20139;-75
2022/11/21 17:27:39;;;;;;;73.95;25.42;;;;;;;-0.13;97.17;98242.84;8426690;28;20130;-74
2022/11/21 17:31:50;;;;;;;72.20;26.20;;;;;;;-0.26;97.18;98259.22;8393037;28;20079;-75
2022/11/21 17:35:51;;;;;;;66.53;24.90;;;;;;;-0.26;97.58;98252.06;8425945;28;20047;-75
2022/11/21 17:39:56;;;;;;;75.13;25.38;;;;;;;-0.21;97.69;98251.31;8426779;28;20059;-75
2022/11/21 17:44:00;;;;;;;78.93;26.15;;;;;;;-0.17;96.97;98257.69;8373992;28;20086;-75
2022/11/21 17:48:04;;;;;;;78.15;26.45;;;;;;;-0.18;97.34;98245.47;8392008;28;20406;-75
2022/11/21 17:52:07;;;;;;;85.35;26.45;;;;;;;-0.26;96.88;98253.91;8426569;28;20102;-75
2022/11/21 17:56:14;;;;;;;74.43;25.65;;;;;;;-0.29;97.50;98249.16;8427116;28;20100;-75
2022/11/21 18:00:19;;;;;;;78.00;26.65;;;;;;;-0.33;97.49;98258.69;8358030;28;20052;-75
2022/11/21 18:04:23;;;;;;;71.85;24.60;;;;;;;-0.23;97.16;98269.34;8391221;28;20059;-76
2022/11/21 18:08:25;;;;;;;74.60;26.42;;;;;;;-0.27;96.91;98257.66;8406276;28;20040;-76
2022/11/21 18:12:26;;;;;;;71.53;24.52;;;;;;;-0.30;97.08;98258.97;8426406;28;20059;-76
2022/11/21 18:16:29;;;;;;;59.42;21.30;;;;;;;-0.26;96.55;98264.53;8389437;28;20060;-76
2022/11/21 18:20:31;;;;;;;77.45;28.33;;;;;;;-0.32;96.64;98265.59;8423280;28;20102;-75
2022/11/21 18:24:34;;;;;;;122.80;37.85;;;;;;;-0.26;96.67;98269.84;8382812;28;20059;-74
2022/11/21 18:28:35;;;;;;;79.32;29.08;;;;;;;-0.27;96.86;98257.66;8407729;28;20056;-75
2022/11/21 18:32:37;;;;;;;95.50;32.65;;;;;;;-0.22;96.06;98255.03;8426473;28;20044;-76
2022/11/21 18:36:38;;;;;;;72.10;25.02;;;;;;;-0.27;96.10;98262.97;8427099;28;20489;-76
2022/11/21 18:40:39;;;;;;;66.55;24.50;;;;;;;-0.24;96.52;98267.75;8414130;28;20522;-75
2022/11/21 18:44:40;;;;;;;75.32;24.60;;;;;;;-0.23;96.63;98270.16;8426450;28;20047;-75
2022/11/21 18:48:42;;;;;;;74.07;27.48;;;;;;;-0.20;96.45;98255.53;8426632;28;20048;-75
2022/11/21 18:52:42;;;;;;;70.05;26.17;;;;;;;-0.15;96.23;98260.88;8424746;28;20050;-76
2022/11/21 18:56:44;;;;;;;68.30;22.77;;;;;;;-0.25;96.10;98266.13;8401506;28;20048;-76
2022/11/21 19:00:44;;;;;;;64.20;25.50;;;;;;;-0.23;96.50;98264.03;8424620;28;20479;-74
2022/11/21 19:04:46;;;;;;;78.80;28.67;;;;;;;-0.26;96.18;98264.53;8431854;28;20051;-74
2022/11/21 19:08:49;;;;;;;71.88;27.05;;;;;;;-0.24;96.13;98267.75;8431879;28;20139;-75
2022/11/21 19:12:50;;;;;;;74.32;26.10;;;;;;;-0.22;96.34;98260.34;8432672;28;20044;-74
2022/11/21 19:16:51;;;;;;;71.63;25.10;;;;;;;-0.17;95.83;98263.81;8432356;28;20087;-74
2022/11/21 19:20:53;;;;;;;66.68;23.50;;;;;;;-0.12;95.87;98260.38;8430745;28;20054;-75